sensor_id;sensor_type;location;lat;lon;timestamp;P1;durP1;ratioP1;P2;durP2;ratioP2
15608;SDS011;64278;45.642;13.756;2023-03-01T00:01:07;5.95;;;5.45;;
15608;SDS011;64278;45.642;13.756;2023-03-01T00:03:36;6.68;;;6.07;;
15608;SDS011;64278;45.642;13.756;2023-03-01T00:06:02;6.28;;;5.78;;
15608;SDS011;64278;45.642;13.756;2023-03-01T00:08:29;6.05;;;5.55;;
15608;SDS011;64278;45.642;13.756;2023-03-01T00:13:29;6.72;;;6.13;;
15608;SDS011;64278;45.642;13.756;2023-03-01T00:15:55;5.68;;;5.18;;
15608;SDS011;64278;45.642;13.756;2023-03-01T00:18:21;5.47;;;5.07;;
15608;SDS011;64278;45.642;13.756;2023-03-01T00:20:53;6.22;;;5.70;;
15608;SDS011;64278;45.642;13.756;2023-03-01T00:23:20;6.65;;;6.05;;
15608;SDS011;64278;45.642;13.756;2023-03-01T00:25:45;5.65;;;5.15;;
15608;SDS011;64278;45.642;13.756;2023-03-01T00:28:11;6.00;;;5.53;;
15608;SDS011;64278;45.642;13.756;2023-03-01T00:30:37;6.50;;;5.95;;
15608;SDS011;64278;45.642;13.756;2023-03-01T00:33:03;6.30;;;5.75;;
15608;SDS011;64278;45.642;13.756;2023-03-01T00:35:28;5.78;;;5.25;;
15608;SDS011;64278;45.642;13.756;2023-03-01T00:37:54;6.63;;;6.10;;
15608;SDS011;64278;45.642;13.756;2023-03-01T00:40:23;6.63;;;6.03;;
15608;SDS011;64278;45.642;13.756;2023-03-01T00:42:49;6.03;;;5.60;;
15608;SDS011;64278;45.642;13.756;2023-03-01T00:45:15;5.97;;;5.53;;
15608;SDS011;64278;45.642;13.756;2023-03-01T00:47:41;6.28;;;5.68;;
15608;SDS011;64278;45.642;13.756;2023-03-01T00:50:07;6.97;;;6.38;;
15608;SDS011;64278;45.642;13.756;2023-03-01T00:52:34;6.50;;;6.00;;
15608;SDS011;64278;45.642;13.756;2023-03-01T00:54:59;7.63;;;7.03;;
15608;SDS011;64278;45.642;13.756;2023-03-01T00:57:25;5.65;;;5.25;;
15608;SDS011;64278;45.642;13.756;2023-03-01T00:59:50;6.00;;;5.50;;
15608;SDS011;64278;45.642;13.756;2023-03-01T01:02:17;5.88;;;5.38;;
15608;SDS011;64278;45.642;13.756;2023-03-01T01:04:44;5.97;;;5.57;;
15608;SDS011;64278;45.642;13.756;2023-03-01T01:07:10;5.45;;;4.95;;
15608;SDS011;64278;45.642;13.756;2023-03-01T01:09:36;7.20;;;6.57;;
15608;SDS011;64278;45.642;13.756;2023-03-01T01:12:01;6.18;;;5.68;;
15608;SDS011;64278;45.642;13.756;2023-03-01T01:14:28;6.75;;;6.25;;
15608;SDS011;64278;45.642;13.756;2023-03-01T01:16:54;6.15;;;5.65;;
15608;SDS011;64278;45.642;13.756;2023-03-01T01:19:20;5.93;;;5.43;;
15608;SDS011;64278;45.642;13.756;2023-03-01T01:21:46;6.38;;;5.88;;
15608;SDS011;64278;45.642;13.756;2023-03-01T01:24:13;6.43;;;5.93;;
15608;SDS011;64278;45.642;13.756;2023-03-01T01:26:39;6.38;;;5.88;;
15608;SDS011;64278;45.642;13.756;2023-03-01T01:29:06;6.55;;;6.00;;
15608;SDS011;64278;45.642;13.756;2023-03-01T01:31:32;6.18;;;5.68;;
15608;SDS011;64278;45.642;13.756;2023-03-01T01:34:00;6.70;;;6.20;;
15608;SDS011;64278;45.642;13.756;2023-03-01T01:36:28;6.00;;;5.60;;
15608;SDS011;64278;45.642;13.756;2023-03-01T01:38:54;6.30;;;5.80;;
15608;SDS011;64278;45.642;13.756;2023-03-01T01:41:20;6.78;;;6.28;;
15608;SDS011;64278;45.642;13.756;2023-03-01T01:43:48;6.25;;;5.72;;
15608;SDS011;64278;45.642;13.756;2023-03-01T01:46:33;6.45;;;5.85;;
15608;SDS011;64278;45.642;13.756;2023-03-01T01:49:16;6.25;;;5.78;;
15608;SDS011;64278;45.642;13.756;2023-03-01T01:52:10;6.95;;;6.35;;
15608;SDS011;64278;45.642;13.756;2023-03-01T01:54:46;6.00;;;5.50;;
15608;SDS011;64278;45.642;13.756;2023-03-01T01:57:27;6.25;;;5.75;;
15608;SDS011;64278;45.642;13.756;2023-03-01T01:59:59;6.70;;;6.13;;
15608;SDS011;64278;45.642;13.756;2023-03-01T02:02:28;6.03;;;5.53;;
15608;SDS011;64278;45.642;13.756;2023-03-01T02:04:56;6.60;;;6.05;;
15608;SDS011;64278;45.642;13.756;2023-03-01T02:07:28;6.32;;;5.82;;
15608;SDS011;64278;45.642;13.756;2023-03-01T02:09:54;6.90;;;6.30;;
15608;SDS011;64278;45.642;13.756;2023-03-01T02:12:21;6.00;;;5.60;;
15608;SDS011;64278;45.642;13.756;2023-03-01T02:14:49;6.55;;;5.95;;
15608;SDS011;64278;45.642;13.756;2023-03-01T02:17:15;5.97;;;5.53;;
15608;SDS011;64278;45.642;13.756;2023-03-01T02:19:46;6.50;;;6.03;;
15608;SDS011;64278;45.642;13.756;2023-03-01T02:22:22;6.05;;;5.53;;
15608;SDS011;64278;45.642;13.756;2023-03-01T02:30:46;6.22;;;5.50;;
15608;SDS011;64278;45.642;13.756;2023-03-01T02:33:33;5.97;;;5.47;;
15608;SDS011;64278;45.642;13.756;2023-03-01T02:36:02;6.28;;;5.72;;
15608;SDS011;64278;45.642;13.756;2023-03-01T02:38:32;6.03;;;5.53;;
15608;SDS011;64278;45.642;13.756;2023-03-01T02:40:57;6.20;;;5.70;;
15608;SDS011;64278;45.642;13.756;2023-03-01T02:43:25;6.53;;;5.93;;
15608;SDS011;64278;45.642;13.756;2023-03-01T02:45:57;7.10;;;6.43;;
15608;SDS011;64278;45.642;13.756;2023-03-01T02:48:27;5.65;;;5.25;;
15608;SDS011;64278;45.642;13.756;2023-03-01T02:50:56;6.10;;;5.70;;
15608;SDS011;64278;45.642;13.756;2023-03-01T02:56:15;6.50;;;6.00;;
15608;SDS011;64278;45.642;13.756;2023-03-01T02:58:41;6.50;;;5.90;;
15608;SDS011;64278;45.642;13.756;2023-03-01T03:01:10;6.65;;;6.05;;
15608;SDS011;64278;45.642;13.756;2023-03-01T03:03:40;5.78;;;5.28;;
15608;SDS011;64278;45.642;13.756;2023-03-01T03:06:06;6.45;;;5.95;;
15608;SDS011;64278;45.642;13.756;2023-03-01T03:08:32;6.60;;;6.07;;
15608;SDS011;64278;45.642;13.756;2023-03-01T03:10:57;6.53;;;6.03;;
15608;SDS011;64278;45.642;13.756;2023-03-01T03:13:23;6.13;;;5.63;;
15608;SDS011;64278;45.642;13.756;2023-03-01T03:15:53;5.85;;;5.45;;
15608;SDS011;64278;45.642;13.756;2023-03-01T03:18:20;6.32;;;5.82;;
15608;SDS011;64278;45.642;13.756;2023-03-01T03:20:46;6.43;;;5.93;;
15608;SDS011;64278;45.642;13.756;2023-03-01T03:23:17;6.60;;;6.00;;
15608;SDS011;64278;45.642;13.756;2023-03-01T03:25:44;6.90;;;6.20;;
15608;SDS011;64278;45.642;13.756;2023-03-01T03:28:12;6.70;;;6.18;;
15608;SDS011;64278;45.642;13.756;2023-03-01T03:30:38;6.07;;;5.50;;
15608;SDS011;64278;45.642;13.756;2023-03-01T03:33:05;6.25;;;5.75;;
15608;SDS011;64278;45.642;13.756;2023-03-01T03:35:33;6.30;;;5.80;;
15608;SDS011;64278;45.642;13.756;2023-03-01T03:38:04;7.10;;;6.07;;
15608;SDS011;64278;45.642;13.756;2023-03-01T03:43:00;6.55;;;6.00;;
15608;SDS011;64278;45.642;13.756;2023-03-01T03:45:27;6.35;;;5.85;;
15608;SDS011;64278;45.642;13.756;2023-03-01T03:47:52;5.90;;;5.40;;
15608;SDS011;64278;45.642;13.756;2023-03-01T03:50:18;6.70;;;6.10;;
15608;SDS011;64278;45.642;13.756;2023-03-01T03:52:44;6.28;;;5.78;;
15608;SDS011;64278;45.642;13.756;2023-03-01T03:55:10;6.10;;;5.70;;
15608;SDS011;64278;45.642;13.756;2023-03-01T03:57:37;5.75;;;5.30;;
15608;SDS011;64278;45.642;13.756;2023-03-01T04:00:06;6.03;;;5.63;;
15608;SDS011;64278;45.642;13.756;2023-03-01T04:02:41;5.80;;;5.30;;
15608;SDS011;64278;45.642;13.756;2023-03-01T04:05:08;5.97;;;5.47;;
15608;SDS011;64278;45.642;13.756;2023-03-01T04:07:35;6.13;;;5.63;;
15608;SDS011;64278;45.642;13.756;2023-03-01T04:10:05;6.63;;;6.03;;
15608;SDS011;64278;45.642;13.756;2023-03-01T04:12:33;5.57;;;5.18;;
15608;SDS011;64278;45.642;13.756;2023-03-01T04:15:00;5.97;;;5.47;;
15608;SDS011;64278;45.642;13.756;2023-03-01T04:17:26;5.70;;;5.30;;
15608;SDS011;64278;45.642;13.756;2023-03-01T04:19:52;5.20;;;4.80;;
15608;SDS011;64278;45.642;13.756;2023-03-01T04:22:18;5.88;;;5.32;;
15608;SDS011;64278;45.642;13.756;2023-03-01T04:24:44;5.40;;;5.00;;
15608;SDS011;64278;45.642;13.756;2023-03-01T04:27:10;6.80;;;6.20;;
15608;SDS011;64278;45.642;13.756;2023-03-01T04:29:37;6.28;;;5.78;;
15608;SDS011;64278;45.642;13.756;2023-03-01T04:32:03;6.10;;;5.60;;
15608;SDS011;64278;45.642;13.756;2023-03-01T04:34:29;5.75;;;5.25;;
15608;SDS011;64278;45.642;13.756;2023-03-01T04:36:55;5.57;;;5.15;;
15608;SDS011;64278;45.642;13.756;2023-03-01T04:39:21;6.60;;;5.90;;
15608;SDS011;64278;45.642;13.756;2023-03-01T04:41:46;6.30;;;5.80;;
15608;SDS011;64278;45.642;13.756;2023-03-01T04:44:12;6.30;;;5.80;;
15608;SDS011;64278;45.642;13.756;2023-03-01T04:46:38;5.88;;;5.43;;
15608;SDS011;64278;45.642;13.756;2023-03-01T04:49:03;5.53;;;5.13;;
15608;SDS011;64278;45.642;13.756;2023-03-01T04:51:30;6.50;;;6.00;;
15608;SDS011;64278;45.642;13.756;2023-03-01T04:53:57;5.47;;;5.07;;
15608;SDS011;64278;45.642;13.756;2023-03-01T04:56:23;5.57;;;5.18;;
15608;SDS011;64278;45.642;13.756;2023-03-01T04:58:49;5.30;;;4.85;;
15608;SDS011;64278;45.642;13.756;2023-03-01T05:01:18;6.07;;;5.57;;
15608;SDS011;64278;45.642;13.756;2023-03-01T05:03:50;5.60;;;5.20;;
15608;SDS011;64278;45.642;13.756;2023-03-01T05:06:17;5.82;;;5.43;;
15608;SDS011;64278;45.642;13.756;2023-03-01T05:08:44;5.32;;;4.93;;
15608;SDS011;64278;45.642;13.756;2023-03-01T05:11:10;5.20;;;4.80;;
15608;SDS011;64278;45.642;13.756;2023-03-01T05:13:37;6.40;;;5.80;;
15608;SDS011;64278;45.642;13.756;2023-03-01T05:16:04;5.72;;;5.18;;
15608;SDS011;64278;45.642;13.756;2023-03-01T05:18:31;5.85;;;5.35;;
15608;SDS011;64278;45.642;13.756;2023-03-01T05:23:30;5.35;;;4.95;;
15608;SDS011;64278;45.642;13.756;2023-03-01T05:26:00;5.53;;;5.13;;
15608;SDS011;64278;45.642;13.756;2023-03-01T05:28:28;5.85;;;5.43;;
15608;SDS011;64278;45.642;13.756;2023-03-01T05:30:54;5.88;;;5.38;;
15608;SDS011;64278;45.642;13.756;2023-03-01T05:33:21;5.25;;;4.95;;
15608;SDS011;64278;45.642;13.756;2023-03-01T05:35:47;5.38;;;4.97;;
15608;SDS011;64278;45.642;13.756;2023-03-01T05:38:14;5.68;;;5.18;;
15608;SDS011;64278;45.642;13.756;2023-03-01T05:40:41;5.68;;;5.22;;
15608;SDS011;64278;45.642;13.756;2023-03-01T05:43:08;5.72;;;5.22;;
15608;SDS011;64278;45.642;13.756;2023-03-01T05:45:35;5.22;;;4.82;;
15608;SDS011;64278;45.642;13.756;2023-03-01T05:48:02;6.18;;;5.68;;
15608;SDS011;64278;45.642;13.756;2023-03-01T05:50:32;6.45;;;5.95;;
15608;SDS011;64278;45.642;13.756;2023-03-01T05:53:00;5.88;;;5.45;;
15608;SDS011;64278;45.642;13.756;2023-03-01T05:55:26;6.55;;;6.05;;
15608;SDS011;64278;45.642;13.756;2023-03-01T05:57:53;5.60;;;5.20;;
15608;SDS011;64278;45.642;13.756;2023-03-01T06:00:20;5.65;;;5.25;;
15608;SDS011;64278;45.642;13.756;2023-03-01T06:02:49;5.60;;;5.10;;
15608;SDS011;64278;45.642;13.756;2023-03-01T06:05:17;5.68;;;5.22;;
15608;SDS011;64278;45.642;13.756;2023-03-01T06:07:43;5.80;;;5.38;;
15608;SDS011;64278;45.642;13.756;2023-03-01T06:10:09;5.53;;;5.07;;
15608;SDS011;64278;45.642;13.756;2023-03-01T06:12:37;6.57;;;5.93;;
15608;SDS011;64278;45.642;13.756;2023-03-01T06:15:04;5.95;;;5.45;;
15608;SDS011;64278;45.642;13.756;2023-03-01T06:17:31;6.00;;;5.50;;
15608;SDS011;64278;45.642;13.756;2023-03-01T06:20:02;5.50;;;5.10;;
15608;SDS011;64278;45.642;13.756;2023-03-01T06:22:34;5.70;;;5.28;;
15608;SDS011;64278;45.642;13.756;2023-03-01T06:24:59;6.20;;;5.70;;
15608;SDS011;64278;45.642;13.756;2023-03-01T06:27:25;5.68;;;5.20;;
15608;SDS011;64278;45.642;13.756;2023-03-01T06:29:51;5.18;;;4.70;;
15608;SDS011;64278;45.642;13.756;2023-03-01T06:32:17;5.53;;;5.03;;
15608;SDS011;64278;45.642;13.756;2023-03-01T06:34:43;6.20;;;5.57;;
15608;SDS011;64278;45.642;13.756;2023-03-01T06:37:09;5.53;;;5.03;;
15608;SDS011;64278;45.642;13.756;2023-03-01T06:39:34;5.07;;;4.68;;
15608;SDS011;64278;45.642;13.756;2023-03-01T06:42:00;6.10;;;5.38;;
15608;SDS011;64278;45.642;13.756;2023-03-01T06:44:26;5.35;;;4.95;;
15608;SDS011;64278;45.642;13.756;2023-03-01T06:46:52;5.43;;;5.03;;
15608;SDS011;64278;45.642;13.756;2023-03-01T06:49:18;6.03;;;5.53;;
15608;SDS011;64278;45.642;13.756;2023-03-01T06:51:44;6.25;;;5.75;;
15608;SDS011;64278;45.642;13.756;2023-03-01T06:54:11;4.80;;;4.50;;
15608;SDS011;64278;45.642;13.756;2023-03-01T06:56:36;5.65;;;5.25;;
15608;SDS011;64278;45.642;13.756;2023-03-01T06:59:02;5.53;;;5.03;;
15608;SDS011;64278;45.642;13.756;2023-03-01T07:01:28;6.30;;;5.70;;
15608;SDS011;64278;45.642;13.756;2023-03-01T07:03:54;5.50;;;5.10;;
15608;SDS011;64278;45.642;13.756;2023-03-01T07:06:20;5.30;;;4.90;;
15608;SDS011;64278;45.642;13.756;2023-03-01T07:08:46;5.85;;;5.45;;
15608;SDS011;64278;45.642;13.756;2023-03-01T07:11:13;5.57;;;5.13;;
15608;SDS011;64278;45.642;13.756;2023-03-01T07:13:38;5.55;;;5.05;;
15608;SDS011;64278;45.642;13.756;2023-03-01T07:16:04;7.30;;;6.70;;
15608;SDS011;64278;45.642;13.756;2023-03-01T07:18:30;6.80;;;6.20;;
15608;SDS011;64278;45.642;13.756;2023-03-01T07:20:56;6.00;;;5.50;;
15608;SDS011;64278;45.642;13.756;2023-03-01T07:23:21;6.45;;;5.70;;
15608;SDS011;64278;45.642;13.756;2023-03-01T07:25:53;8.63;;;6.57;;
15608;SDS011;64278;45.642;13.756;2023-03-01T07:28:19;6.65;;;6.10;;
15608;SDS011;64278;45.642;13.756;2023-03-01T07:30:47;5.75;;;5.25;;
15608;SDS011;64278;45.642;13.756;2023-03-01T07:33:12;6.30;;;5.80;;
15608;SDS011;64278;45.642;13.756;2023-03-01T07:35:38;7.50;;;6.50;;
15608;SDS011;64278;45.642;13.756;2023-03-01T07:38:03;6.93;;;6.10;;
15608;SDS011;64278;45.642;13.756;2023-03-01T07:40:29;6.70;;;6.10;;
15608;SDS011;64278;45.642;13.756;2023-03-01T07:42:58;6.82;;;6.30;;
15608;SDS011;64278;45.642;13.756;2023-03-01T07:45:24;6.45;;;5.68;;
15608;SDS011;64278;45.642;13.756;2023-03-01T07:47:51;6.57;;;5.85;;
15608;SDS011;64278;45.642;13.756;2023-03-01T07:50:17;6.75;;;6.15;;
15608;SDS011;64278;45.642;13.756;2023-03-01T07:52:44;7.47;;;6.78;;
15608;SDS011;64278;45.642;13.756;2023-03-01T07:55:11;6.60;;;5.97;;
15608;SDS011;64278;45.642;13.756;2023-03-01T07:57:37;6.55;;;5.95;;
15608;SDS011;64278;45.642;13.756;2023-03-01T08:00:03;6.47;;;5.93;;
15608;SDS011;64278;45.642;13.756;2023-03-01T08:02:29;6.53;;;6.00;;
15608;SDS011;64278;45.642;13.756;2023-03-01T08:04:55;7.68;;;6.55;;
15608;SDS011;64278;45.642;13.756;2023-03-01T08:07:21;6.35;;;5.75;;
15608;SDS011;64278;45.642;13.756;2023-03-01T08:09:46;6.80;;;6.20;;
15608;SDS011;64278;45.642;13.756;2023-03-01T08:12:12;6.68;;;6.00;;
15608;SDS011;64278;45.642;13.756;2023-03-01T08:14:38;6.93;;;6.32;;
15608;SDS011;64278;45.642;13.756;2023-03-01T08:17:03;6.35;;;5.75;;
15608;SDS011;64278;45.642;13.756;2023-03-01T08:19:29;6.35;;;5.85;;
15608;SDS011;64278;45.642;13.756;2023-03-01T08:21:55;7.70;;;6.30;;
15608;SDS011;64278;45.642;13.756;2023-03-01T08:24:23;6.65;;;6.05;;
15608;SDS011;64278;45.642;13.756;2023-03-01T08:26:49;6.00;;;5.50;;
15608;SDS011;64278;45.642;13.756;2023-03-01T08:29:14;6.13;;;5.53;;
15608;SDS011;64278;45.642;13.756;2023-03-01T08:31:40;5.60;;;5.03;;
15608;SDS011;64278;45.642;13.756;2023-03-01T08:34:07;6.05;;;5.45;;
15608;SDS011;64278;45.642;13.756;2023-03-01T08:36:36;6.20;;;5.70;;
15608;SDS011;64278;45.642;13.756;2023-03-01T08:39:05;9.45;;;5.45;;
15608;SDS011;64278;45.642;13.756;2023-03-01T08:41:31;5.68;;;5.18;;
15608;SDS011;64278;45.642;13.756;2023-03-01T08:43:57;6.57;;;5.72;;
15608;SDS011;64278;45.642;13.756;2023-03-01T08:46:27;6.15;;;5.60;;
15608;SDS011;64278;45.642;13.756;2023-03-01T08:48:58;5.30;;;4.72;;
15608;SDS011;64278;45.642;13.756;2023-03-01T08:51:24;5.97;;;5.47;;
15608;SDS011;64278;45.642;13.756;2023-03-01T08:53:51;6.20;;;5.43;;
15608;SDS011;64278;45.642;13.756;2023-03-01T08:56:17;6.05;;;5.45;;
15608;SDS011;64278;45.642;13.756;2023-03-01T08:58:45;6.07;;;5.55;;
15608;SDS011;64278;45.642;13.756;2023-03-01T09:01:12;5.25;;;4.70;;
15608;SDS011;64278;45.642;13.756;2023-03-01T09:03:40;5.70;;;5.20;;
15608;SDS011;64278;45.642;13.756;2023-03-01T09:06:06;5.75;;;5.20;;
15608;SDS011;64278;45.642;13.756;2023-03-01T09:08:40;5.70;;;5.20;;
15608;SDS011;64278;45.642;13.756;2023-03-01T09:11:08;6.30;;;4.97;;
15608;SDS011;64278;45.642;13.756;2023-03-01T09:13:35;6.50;;;5.28;;
15608;SDS011;64278;45.642;13.756;2023-03-01T09:16:01;5.40;;;4.90;;
15608;SDS011;64278;45.642;13.756;2023-03-01T09:18:29;5.15;;;4.75;;
15608;SDS011;64278;45.642;13.756;2023-03-01T09:23:49;5.78;;;5.25;;
15608;SDS011;64278;45.642;13.756;2023-03-01T09:26:17;5.75;;;5.25;;
15608;SDS011;64278;45.642;13.756;2023-03-01T09:28:44;5.22;;;4.72;;
15608;SDS011;64278;45.642;13.756;2023-03-01T09:31:11;5.43;;;4.93;;
15608;SDS011;64278;45.642;13.756;2023-03-01T09:33:38;5.53;;;4.60;;
15608;SDS011;64278;45.642;13.756;2023-03-01T09:36:06;5.20;;;4.80;;
15608;SDS011;64278;45.642;13.756;2023-03-01T09:38:36;5.25;;;4.85;;
15608;SDS011;64278;45.642;13.756;2023-03-01T09:41:02;7.80;;;5.03;;
15608;SDS011;64278;45.642;13.756;2023-03-01T09:43:39;6.57;;;5.13;;
15608;SDS011;64278;45.642;13.756;2023-03-01T09:46:12;8.65;;;5.50;;
15608;SDS011;64278;45.642;13.756;2023-03-01T09:48:43;9.82;;;5.32;;
15608;SDS011;64278;45.642;13.756;2023-03-01T09:51:15;11.82;;;5.60;;
15608;SDS011;64278;45.642;13.756;2023-03-01T09:53:44;9.35;;;4.55;;
15608;SDS011;64278;45.642;13.756;2023-03-01T09:56:16;7.25;;;4.85;;
15608;SDS011;64278;45.642;13.756;2023-03-01T10:06:52;12.15;;;5.70;;
15608;SDS011;64278;45.642;13.756;2023-03-01T10:09:36;7.28;;;5.25;;
15608;SDS011;64278;45.642;13.756;2023-03-01T10:12:04;9.27;;;5.30;;
15608;SDS011;64278;45.642;13.756;2023-03-01T10:17:27;11.20;;;5.35;;
15608;SDS011;64278;45.642;13.756;2023-03-01T10:23:02;14.10;;;5.40;;
15608;SDS011;64278;45.642;13.756;2023-03-01T10:28:10;9.75;;;5.13;;
15608;SDS011;64278;45.642;13.756;2023-03-01T10:30:43;8.82;;;4.85;;
15608;SDS011;64278;45.642;13.756;2023-03-01T10:33:14;8.75;;;5.05;;
15608;SDS011;64278;45.642;13.756;2023-03-01T10:35:44;6.60;;;5.10;;
15608;SDS011;64278;45.642;13.756;2023-03-01T10:38:11;10.35;;;4.70;;
15608;SDS011;64278;45.642;13.756;2023-03-01T10:40:55;6.20;;;5.30;;
15608;SDS011;64278;45.642;13.756;2023-03-01T10:43:23;5.70;;;4.10;;
15608;SDS011;64278;45.642;13.756;2023-03-01T10:46:15;7.07;;;5.00;;
15608;SDS011;64278;45.642;13.756;2023-03-01T10:51:46;6.32;;;4.75;;
15608;SDS011;64278;45.642;13.756;2023-03-01T10:54:26;4.60;;;4.20;;
15608;SDS011;64278;45.642;13.756;2023-03-01T10:57:01;5.60;;;4.65;;
15608;SDS011;64278;45.642;13.756;2023-03-01T10:59:32;5.60;;;4.65;;
15608;SDS011;64278;45.642;13.756;2023-03-01T11:04:34;5.47;;;4.85;;
15608;SDS011;64278;45.642;13.756;2023-03-01T11:07:00;5.32;;;4.82;;
15608;SDS011;64278;45.642;13.756;2023-03-01T11:09:29;5.85;;;4.28;;
15608;SDS011;64278;45.642;13.756;2023-03-01T11:12:02;8.63;;;4.88;;
15608;SDS011;64278;45.642;13.756;2023-03-01T11:14:32;4.38;;;3.92;;
15608;SDS011;64278;45.642;13.756;2023-03-01T11:17:10;4.75;;;4.20;;
15608;SDS011;64278;45.642;13.756;2023-03-01T11:19:40;4.30;;;3.78;;
15608;SDS011;64278;45.642;13.756;2023-03-01T11:22:12;4.70;;;4.35;;
15608;SDS011;64278;45.642;13.756;2023-03-01T11:27:19;4.45;;;4.15;;
15608;SDS011;64278;45.642;13.756;2023-03-01T11:30:35;4.15;;;3.83;;
15608;SDS011;64278;45.642;13.756;2023-03-01T11:33:24;4.65;;;4.22;;
15608;SDS011;64278;45.642;13.756;2023-03-01T11:36:10;4.85;;;4.45;;
15608;SDS011;64278;45.642;13.756;2023-03-01T11:38:57;4.35;;;4.05;;
15608;SDS011;64278;45.642;13.756;2023-03-01T11:41:40;4.93;;;4.18;;
15608;SDS011;64278;45.642;13.756;2023-03-01T14:07:50;2.75;;;2.55;;
15608;SDS011;64278;45.642;13.756;2023-03-01T14:10:16;2.60;;;2.40;;
15608;SDS011;64278;45.642;13.756;2023-03-01T14:12:50;2.63;;;2.35;;
15608;SDS011;64278;45.642;13.756;2023-03-01T14:15:39;2.67;;;2.47;;
15608;SDS011;64278;45.642;13.756;2023-03-01T14:18:14;2.55;;;2.35;;
15608;SDS011;64278;45.642;13.756;2023-03-01T14:20:52;2.33;;;2.13;;
15608;SDS011;64278;45.642;13.756;2023-03-01T14:23:19;2.60;;;2.40;;
15608;SDS011;64278;45.642;13.756;2023-03-01T14:25:50;2.47;;;2.28;;
15608;SDS011;64278;45.642;13.756;2023-03-01T14:28:23;2.97;;;2.63;;
15608;SDS011;64278;45.642;13.756;2023-03-01T14:30:52;2.92;;;2.42;;
15608;SDS011;64278;45.642;13.756;2023-03-01T14:35:51;2.40;;;2.20;;
15608;SDS011;64278;45.642;13.756;2023-03-01T14:38:28;3.10;;;2.22;;
15608;SDS011;64278;45.642;13.756;2023-03-01T14:41:00;2.15;;;2.00;;
15608;SDS011;64278;45.642;13.756;2023-03-01T14:43:41;2.35;;;2.15;;
15608;SDS011;64278;45.642;13.756;2023-03-01T14:49:09;2.47;;;1.90;;
15608;SDS011;64278;45.642;13.756;2023-03-01T14:51:39;2.78;;;2.08;;
15608;SDS011;64278;45.642;13.756;2023-03-01T14:56:54;2.10;;;2.00;;
15608;SDS011;64278;45.642;13.756;2023-03-01T14:59:24;3.25;;;2.00;;
15608;SDS011;64278;45.642;13.756;2023-03-01T15:01:50;2.40;;;2.25;;
15608;SDS011;64278;45.642;13.756;2023-03-01T15:04:18;2.35;;;2.10;;
15608;SDS011;64278;45.642;13.756;2023-03-01T15:06:46;3.78;;;2.20;;
15608;SDS011;64278;45.642;13.756;2023-03-01T15:09:15;3.13;;;1.80;;
15608;SDS011;64278;45.642;13.756;2023-03-01T15:11:42;1.90;;;1.73;;
15608;SDS011;64278;45.642;13.756;2023-03-01T15:17:03;1.52;;;1.42;;
15608;SDS011;64278;45.642;13.756;2023-03-01T15:19:29;2.30;;;2.10;;
15608;SDS011;64278;45.642;13.756;2023-03-01T15:21:54;2.58;;;1.80;;
15608;SDS011;64278;45.642;13.756;2023-03-01T15:24:23;1.63;;;1.52;;
15608;SDS011;64278;45.642;13.756;2023-03-01T15:26:57;2.13;;;1.83;;
15608;SDS011;64278;45.642;13.756;2023-03-01T15:29:30;1.85;;;1.60;;
15608;SDS011;64278;45.642;13.756;2023-03-01T15:31:59;3.88;;;1.70;;
15608;SDS011;64278;45.642;13.756;2023-03-01T15:34:38;2.22;;;1.80;;
15608;SDS011;64278;45.642;13.756;2023-03-01T15:37:05;1.80;;;1.58;;
15608;SDS011;64278;45.642;13.756;2023-03-01T15:39:56;1.38;;;1.27;;
15608;SDS011;64278;45.642;13.756;2023-03-01T15:45:39;1.30;;;1.20;;
15608;SDS011;64278;45.642;13.756;2023-03-01T15:47:49;2.95;;;1.95;;
15608;SDS011;64278;45.642;13.756;2023-03-01T15:52:53;2.55;;;1.58;;
15608;SDS011;64278;45.642;13.756;2023-03-01T15:55:23;1.70;;;1.60;;
15608;SDS011;64278;45.642;13.756;2023-03-01T15:58:03;2.03;;;1.52;;
15608;SDS011;64278;45.642;13.756;2023-03-01T16:00:31;1.10;;;1.10;;
15608;SDS011;64278;45.642;13.756;2023-03-01T16:02:57;1.30;;;1.20;;
15608;SDS011;64278;45.642;13.756;2023-03-01T16:05:25;1.52;;;1.42;;
15608;SDS011;64278;45.642;13.756;2023-03-01T16:07:56;1.67;;;1.48;;
15608;SDS011;64278;45.642;13.756;2023-03-01T16:10:22;1.50;;;1.40;;
15608;SDS011;64278;45.642;13.756;2023-03-01T16:12:49;1.42;;;1.33;;
15608;SDS011;64278;45.642;13.756;2023-03-01T16:15:30;1.60;;;1.15;;
15608;SDS011;64278;45.642;13.756;2023-03-01T16:17:59;1.23;;;1.10;;
15608;SDS011;64278;45.642;13.756;2023-03-01T16:20:25;1.02;;;1.02;;
15608;SDS011;64278;45.642;13.756;2023-03-01T16:22:51;1.38;;;1.25;;
15608;SDS011;64278;45.642;13.756;2023-03-01T16:25:18;1.13;;;1.02;;
15608;SDS011;64278;45.642;13.756;2023-03-01T16:27:45;1.42;;;1.27;;
15608;SDS011;64278;45.642;13.756;2023-03-01T16:30:12;1.30;;;1.20;;
15608;SDS011;64278;45.642;13.756;2023-03-01T16:32:40;1.35;;;1.25;;
15608;SDS011;64278;45.642;13.756;2023-03-01T16:35:06;1.55;;;1.17;;
15608;SDS011;64278;45.642;13.756;2023-03-01T16:37:34;1.08;;;1.08;;
15608;SDS011;64278;45.642;13.756;2023-03-01T16:40:00;1.30;;;1.20;;
15608;SDS011;64278;45.642;13.756;2023-03-01T16:42:26;1.10;;;1.00;;
15608;SDS011;64278;45.642;13.756;2023-03-01T16:44:55;1.02;;;1.02;;
15608;SDS011;64278;45.642;13.756;2023-03-01T16:47:21;1.30;;;1.20;;
15608;SDS011;64278;45.642;13.756;2023-03-01T16:49:47;1.42;;;1.33;;
15608;SDS011;64278;45.642;13.756;2023-03-01T16:52:16;0.93;;;0.80;;
15608;SDS011;64278;45.642;13.756;2023-03-01T16:54:41;0.93;;;0.93;;
15608;SDS011;64278;45.642;13.756;2023-03-01T16:57:07;1.05;;;1.05;;
15608;SDS011;64278;45.642;13.756;2023-03-01T16:59:33;1.30;;;1.20;;
15608;SDS011;64278;45.642;13.756;2023-03-01T17:01:58;1.60;;;1.20;;
15608;SDS011;64278;45.642;13.756;2023-03-01T17:04:24;0.90;;;0.90;;
15608;SDS011;64278;45.642;13.756;2023-03-01T17:06:50;0.80;;;0.80;;
15608;SDS011;64278;45.642;13.756;2023-03-01T17:09:15;1.35;;;0.93;;
15608;SDS011;64278;45.642;13.756;2023-03-01T17:11:42;1.00;;;1.00;;
15608;SDS011;64278;45.642;13.756;2023-03-01T17:14:08;0.80;;;0.80;;
15608;SDS011;64278;45.642;13.756;2023-03-01T17:16:34;0.80;;;0.80;;
15608;SDS011;64278;45.642;13.756;2023-03-01T17:19:00;0.68;;;0.68;;
15608;SDS011;64278;45.642;13.756;2023-03-01T17:21:26;1.10;;;1.00;;
15608;SDS011;64278;45.642;13.756;2023-03-01T17:23:54;0.80;;;0.80;;
15608;SDS011;64278;45.642;13.756;2023-03-01T17:26:21;0.80;;;0.80;;
15608;SDS011;64278;45.642;13.756;2023-03-01T17:28:47;0.80;;;0.80;;
15608;SDS011;64278;45.642;13.756;2023-03-01T17:31:17;0.70;;;0.70;;
15608;SDS011;64278;45.642;13.756;2023-03-01T17:33:43;0.85;;;0.85;;
15608;SDS011;64278;45.642;13.756;2023-03-01T17:36:09;0.70;;;0.70;;
15608;SDS011;64278;45.642;13.756;2023-03-01T17:38:35;0.80;;;0.80;;
15608;SDS011;64278;45.642;13.756;2023-03-01T17:41:01;0.98;;;0.75;;
15608;SDS011;64278;45.642;13.756;2023-03-01T17:43:28;0.75;;;0.75;;
15608;SDS011;64278;45.642;13.756;2023-03-01T17:45:54;0.60;;;0.60;;
15608;SDS011;64278;45.642;13.756;2023-03-01T17:48:20;1.95;;;0.60;;
15608;SDS011;64278;45.642;13.756;2023-03-01T17:50:46;0.85;;;0.85;;
15608;SDS011;64278;45.642;13.756;2023-03-01T17:53:13;0.70;;;0.70;;
15608;SDS011;64278;45.642;13.756;2023-03-01T17:55:39;0.80;;;0.68;;
15608;SDS011;64278;45.642;13.756;2023-03-01T17:58:07;0.98;;;0.80;;
15608;SDS011;64278;45.642;13.756;2023-03-01T18:00:33;0.60;;;0.60;;
15608;SDS011;64278;45.642;13.756;2023-03-01T18:02:59;0.82;;;0.68;;
15608;SDS011;64278;45.642;13.756;2023-03-01T18:05:25;0.80;;;0.80;;